createdAt,value
2019-01-25T00:01:13.250Z,-3.30
2019-01-25T00:03:46.041Z,-3.33
2019-01-25T00:06:18.849Z,-3.31
2019-01-25T00:08:51.479Z,-3.34
2019-01-25T00:11:24.206Z,-3.37
2019-01-25T00:13:56.935Z,-3.38
2019-01-25T00:16:29.762Z,-3.42
2019-01-25T00:19:02.421Z,-3.42
2019-01-25T00:21:34.322Z,-3.44
2019-01-25T00:24:07.679Z,-3.43
2019-01-25T00:26:40.377Z,-3.46
2019-01-25T00:29:13.174Z,-3.52
2019-01-25T00:31:45.916Z,-3.55
2019-01-25T00:34:18.690Z,-3.48
2019-01-25T00:36:51.388Z,-3.56
2019-01-25T00:39:24.097Z,-3.54
2019-01-25T00:41:56.729Z,-3.54
2019-01-25T00:44:29.443Z,-3.55
2019-01-25T00:47:02.038Z,-3.60
2019-01-25T00:49:34.950Z,-3.60
2019-01-25T00:52:07.707Z,-3.54
2019-01-25T00:54:40.290Z,-3.62
2019-01-25T00:57:12.846Z,-3.65
2019-01-25T00:59:45.559Z,-3.64
2019-01-25T01:02:18.278Z,-3.69
2019-01-25T01:04:50.990Z,-3.65
2019-01-25T01:07:23.721Z,-3.71
2019-01-25T01:09:56.483Z,-3.69
2019-01-25T01:12:29.243Z,-3.66
2019-01-25T01:15:02.126Z,-3.73
2019-01-25T01:17:34.877Z,-3.78
2019-01-25T01:20:11.836Z,-3.78
2019-01-25T01:22:44.493Z,-3.90
2019-01-25T01:25:17.293Z,-3.91
2019-01-25T01:27:49.891Z,-3.92
2019-01-25T01:30:25.643Z,-3.92
2019-01-25T01:32:58.408Z,-3.96
2019-01-25T01:35:31.575Z,-3.93
2019-01-25T01:38:04.792Z,-3.95
2019-01-25T01:40:37.588Z,-4.03
2019-01-25T01:43:10.367Z,-3.98
2019-01-25T01:45:43.073Z,-3.98
2019-01-25T01:48:15.793Z,-4.05
2019-01-25T01:50:48.529Z,-4.04
2019-01-25T01:53:21.241Z,-4.05
2019-01-25T01:55:54.071Z,-4.02
2019-01-25T01:58:26.740Z,-4.12
2019-01-25T02:00:59.755Z,-4.08
2019-01-25T02:03:32.674Z,-4.04
2019-01-25T02:06:06.206Z,-4.01
2019-01-25T02:08:38.998Z,-4.04
2019-01-25T02:11:11.780Z,-4.12
2019-01-25T02:13:44.502Z,-4.09
2019-01-25T02:16:17.194Z,-4.23
2019-01-25T02:18:49.939Z,-4.13
2019-01-25T02:21:22.794Z,-4.24
2019-01-25T02:23:55.558Z,-4.27
2019-01-25T02:26:28.236Z,-4.25
2019-01-25T02:29:00.958Z,-4.17
2019-01-25T02:31:33.677Z,-4.27
2019-01-25T02:34:06.394Z,-4.22
2019-01-25T02:36:39.187Z,-4.20
2019-01-25T02:39:11.955Z,-4.25
2019-01-25T02:41:44.642Z,-4.29
2019-01-25T02:44:17.632Z,-4.37
2019-01-25T02:46:50.391Z,-4.33
2019-01-25T02:49:23.091Z,-4.40
2019-01-25T02:51:55.992Z,-4.48
2019-01-25T02:54:29.137Z,-4.60
2019-01-25T02:57:02.085Z,-4.72
2019-01-25T02:59:34.921Z,-4.90
2019-01-25T03:02:08.603Z,-5.06
2019-01-25T03:04:41.316Z,-5.21
2019-01-25T03:07:14.096Z,-5.32
2019-01-25T03:09:46.763Z,-5.63
2019-01-25T03:12:19.488Z,-5.86
2019-01-25T03:14:52.161Z,-6.01
2019-01-25T03:17:24.982Z,-6.32
2019-01-25T03:19:57.768Z,-6.55
2019-01-25T03:22:30.495Z,-6.65
2019-01-25T03:25:03.291Z,-6.94
2019-01-25T03:27:36.009Z,-7.09
2019-01-25T03:30:11.565Z,-7.19
2019-01-25T03:32:44.304Z,-7.26
2019-01-25T03:35:18.891Z,-7.30
2019-01-25T03:37:52.715Z,-7.31
2019-01-25T03:40:29.735Z,-7.36
2019-01-25T03:43:02.751Z,-7.34
2019-01-25T03:45:35.448Z,-7.38
2019-01-25T03:48:08.666Z,-7.46
2019-01-25T03:50:41.576Z,-7.51
2019-01-25T03:53:14.285Z,-7.54
2019-01-25T03:55:46.994Z,-7.60
2019-01-25T03:58:19.797Z,-7.63
2019-01-25T04:00:52.554Z,-7.66
2019-01-25T04:03:25.231Z,-7.76
2019-01-25T04:05:58.109Z,-7.77
2019-01-25T04:08:30.931Z,-7.78
2019-01-25T04:11:04.217Z,-7.93
2019-01-25T04:13:37.159Z,-7.97
2019-01-25T04:16:09.921Z,-8.10
2019-01-25T04:18:42.644Z,-8.18
2019-01-25T04:21:15.392Z,-8.29
2019-01-25T04:23:48.132Z,-8.22
2019-01-25T04:26:20.915Z,-8.12
2019-01-25T04:28:53.644Z,-7.99
2019-01-25T04:31:26.796Z,-7.91
2019-01-25T04:33:59.593Z,-7.80
2019-01-25T04:36:32.240Z,-7.73
2019-01-25T04:39:08.105Z,-7.63
2019-01-25T04:41:40.831Z,-7.43
2019-01-25T04:44:13.775Z,-7.21
2019-01-25T04:46:46.546Z,-7.05
2019-01-25T04:49:19.224Z,-6.94
2019-01-25T04:51:52.040Z,-6.84
2019-01-25T04:54:24.782Z,-6.97
2019-01-25T04:56:57.513Z,-7.06
2019-01-25T04:59:32.290Z,-7.20
2019-01-25T05:02:05.448Z,-7.42
2019-01-25T05:04:38.465Z,-7.58
2019-01-25T05:07:11.171Z,-7.64
2019-01-25T05:09:43.889Z,-7.70
2019-01-25T05:12:16.674Z,-7.77
2019-01-25T05:14:49.439Z,-7.84
2019-01-25T05:17:22.444Z,-7.94
2019-01-25T05:19:55.237Z,-8.02
2019-01-25T05:22:28.048Z,-8.15
2019-01-25T05:25:00.696Z,-8.26
2019-01-25T05:27:33.613Z,-8.26
2019-01-25T05:30:09.573Z,-8.22
2019-01-25T05:32:42.482Z,-8.44
2019-01-25T05:35:15.279Z,-8.58
2019-01-25T05:37:48.006Z,-8.60
2019-01-25T05:40:26.146Z,-8.49
2019-01-25T05:42:58.823Z,-8.43
2019-01-25T05:45:31.513Z,-8.32
2019-01-25T05:48:04.261Z,-8.26
2019-01-25T05:50:37.073Z,-8.36
2019-01-25T05:53:09.794Z,-8.44
2019-01-25T05:55:42.544Z,-8.52
2019-01-25T05:58:15.331Z,-8.57
2019-01-25T06:00:48.094Z,-8.53
2019-01-25T06:03:20.975Z,-8.48
2019-01-25T06:06:01.880Z,-8.44
2019-01-25T06:08:43.767Z,-8.52
2019-01-25T06:11:14.022Z,-8.57
2019-01-25T06:13:47.566Z,-8.72
2019-01-25T06:16:20.346Z,-8.75
2019-01-25T06:18:53.054Z,-8.69
2019-01-25T06:21:25.839Z,-8.57
2019-01-25T06:23:58.589Z,-8.53
2019-01-25T06:26:31.692Z,-8.44
2019-01-25T06:29:05.263Z,-8.31
2019-01-25T06:31:38.071Z,-8.03
2019-01-25T06:34:13.585Z,-7.79
2019-01-25T06:36:46.498Z,-7.58
2019-01-25T06:39:21.845Z,-7.41
2019-01-25T06:41:54.615Z,-7.16
2019-01-25T06:44:27.489Z,-7.12
2019-01-25T06:47:00.233Z,-6.98
2019-01-25T06:49:33.151Z,-6.88
2019-01-25T06:52:06.056Z,-6.76
2019-01-25T06:54:38.811Z,-6.62
2019-01-25T06:57:29.965Z,-6.47
2019-01-25T07:00:02.829Z,-6.36
2019-01-25T07:02:38.497Z,-6.27
2019-01-25T07:05:11.643Z,-6.15
2019-01-25T07:07:45.826Z,-5.98
2019-01-25T07:10:20.249Z,-6.00
2019-01-25T07:12:53.021Z,-5.94
2019-01-25T07:15:26.738Z,-5.98
2019-01-25T07:17:59.475Z,-5.93
2019-01-25T07:20:33.072Z,-5.97
2019-01-25T07:23:06.015Z,-5.91
2019-01-25T07:25:38.925Z,-5.90
2019-01-25T07:28:11.878Z,-5.76
2019-01-25T07:30:44.651Z,-5.57
2019-01-25T07:33:17.459Z,-5.52
2019-01-25T07:35:50.189Z,-5.45
2019-01-25T07:38:23.050Z,-5.33
2019-01-25T07:40:55.782Z,-5.32
2019-01-25T07:43:28.583Z,-5.29
2019-01-25T07:46:01.348Z,-5.16
2019-01-25T07:48:34.029Z,-5.19
2019-01-25T07:51:06.732Z,-5.24
2019-01-25T07:53:39.359Z,-5.11
2019-01-25T07:56:12.244Z,-5.07
2019-01-25T07:58:45.034Z,-4.94
2019-01-25T08:01:17.751Z,-4.70
2019-01-25T08:03:50.475Z,-4.53
2019-01-25T08:06:23.167Z,-4.59
2019-01-25T08:08:56.132Z,-4.82
2019-01-25T08:11:28.926Z,-4.98
2019-01-25T08:14:02.445Z,-5.17
2019-01-25T08:16:35.166Z,-5.10
2019-01-25T08:19:07.997Z,-5.06
2019-01-25T08:21:40.729Z,-3.99
2019-01-25T08:24:13.429Z,-2.67
2019-01-25T08:26:46.042Z,-1.28
2019-01-25T08:29:18.857Z,-1.16
2019-01-25T08:31:51.521Z,-1.79
2019-01-25T08:34:24.209Z,-2.85
2019-01-25T08:36:57.020Z,-3.33
2019-01-25T08:39:29.659Z,-2.17
2019-01-25T08:42:02.364Z,-0.09
2019-01-25T08:44:35.074Z,1.17
2019-01-25T08:47:07.824Z,0.85
2019-01-25T08:49:40.582Z,1.30
2019-01-25T08:52:13.437Z,-0.29
2019-01-25T08:54:46.157Z,-1.88
2019-01-25T08:57:18.797Z,-2.69
2019-01-25T08:59:51.467Z,-3.00
2019-01-25T09:02:24.233Z,-3.09
2019-01-25T09:04:57.278Z,-3.01
2019-01-25T09:07:30.346Z,-3.08
2019-01-25T09:10:03.103Z,-1.67
2019-01-25T09:12:36.145Z,0.21
2019-01-25T09:15:15.674Z,1.35
2019-01-25T09:17:48.368Z,2.05
2019-01-25T09:20:22.010Z,3.51
2019-01-25T09:22:54.610Z,3.01
2019-01-25T09:25:27.320Z,3.69
2019-01-25T09:27:59.954Z,2.64
2019-01-25T09:30:32.560Z,2.50
2019-01-25T09:33:05.420Z,3.28
2019-01-25T09:35:38.013Z,3.40
2019-01-25T09:38:10.689Z,3.36
2019-01-25T09:40:43.416Z,3.59
2019-01-25T09:43:16.175Z,3.62
2019-01-25T09:45:48.806Z,3.14
2019-01-25T09:48:21.495Z,2.19
2019-01-25T09:50:54.158Z,2.26
2019-01-25T09:53:26.741Z,3.54
2019-01-25T09:55:59.425Z,2.56
2019-01-25T09:58:31.963Z,1.23
2019-01-25T10:01:09.520Z,0.34
2019-01-25T10:03:44.648Z,-0.07
2019-01-25T10:06:17.376Z,-0.43
2019-01-25T10:08:50.008Z,-0.65
2019-01-25T10:11:22.817Z,-1.55
2019-01-25T10:13:55.425Z,-1.47
2019-01-25T10:16:28.002Z,-1.14
2019-01-25T10:19:00.666Z,-0.88
2019-01-25T10:21:33.291Z,-1.03
2019-01-25T10:24:06.264Z,-1.43
2019-01-25T10:26:38.932Z,-1.34
2019-01-25T10:29:11.586Z,-1.27
2019-01-25T10:31:44.258Z,-1.32
2019-01-25T10:34:16.917Z,-0.92
2019-01-25T10:36:50.001Z,-0.11
2019-01-25T10:39:22.675Z,1.01
2019-01-25T10:41:55.342Z,2.07
2019-01-25T10:44:28.111Z,2.82
2019-01-25T10:47:00.802Z,2.44
2019-01-25T10:49:33.348Z,2.55
2019-01-25T10:52:06.518Z,2.30
2019-01-25T10:54:39.086Z,1.79
2019-01-25T10:57:11.699Z,2.28
2019-01-25T10:59:44.239Z,2.74
2019-01-25T11:02:16.976Z,2.79
2019-01-25T11:04:49.697Z,2.20
2019-01-25T11:07:22.396Z,1.23
2019-01-25T11:09:55.078Z,0.57
2019-01-25T11:12:27.722Z,0.13
2019-01-25T11:15:01.445Z,-0.35
2019-01-25T11:17:36.536Z,0.96
2019-01-25T11:20:15.957Z,3.12
2019-01-25T11:22:49.042Z,4.32
2019-01-25T11:25:34.813Z,5.80
2019-01-25T11:28:07.790Z,6.34
2019-01-25T11:30:40.576Z,6.61
2019-01-25T11:33:13.188Z,6.71
2019-01-25T11:35:45.797Z,6.97
2019-01-25T11:38:18.453Z,8.60
2019-01-25T11:40:51.097Z,8.44
2019-01-25T11:43:23.769Z,7.37
2019-01-25T11:45:56.481Z,6.89
2019-01-25T11:48:29.083Z,6.80
2019-01-25T11:51:01.727Z,5.34
2019-01-25T11:53:34.403Z,4.99
2019-01-25T11:56:07.109Z,5.94
2019-01-25T11:58:39.756Z,5.72
2019-01-25T12:01:12.346Z,6.46
2019-01-25T12:03:45.176Z,7.78
2019-01-25T12:06:17.855Z,8.23
2019-01-25T12:08:50.527Z,7.30
2019-01-25T12:11:23.164Z,6.74
2019-01-25T12:13:55.760Z,6.45
2019-01-25T12:16:28.397Z,7.25
2019-01-25T12:19:00.950Z,8.31
2019-01-25T12:21:33.541Z,7.82
2019-01-25T12:24:06.960Z,7.16
2019-01-25T12:26:39.526Z,8.06
2019-01-25T12:29:21.846Z,6.47
2019-01-25T12:31:54.470Z,5.01
2019-01-25T12:34:27.118Z,6.20
2019-01-25T12:36:59.682Z,6.06
2019-01-25T12:39:32.429Z,6.53
2019-01-25T12:42:05.249Z,7.22
2019-01-25T12:44:37.787Z,7.79
2019-01-25T12:47:10.429Z,8.66
2019-01-25T12:49:43.088Z,8.36
2019-01-25T12:52:15.657Z,8.36
2019-01-25T12:54:48.466Z,8.72
2019-01-25T12:57:21.241Z,7.70
2019-01-25T12:59:53.974Z,8.04
2019-01-25T13:02:26.636Z,8.31
2019-01-25T13:04:59.441Z,8.45
2019-01-25T13:07:32.155Z,8.66
2019-01-25T13:10:06.110Z,9.06
2019-01-25T13:12:38.820Z,9.45
2019-01-25T13:15:13.021Z,8.87
2019-01-25T13:17:45.353Z,9.08
2019-01-25T13:20:24.501Z,8.14
2019-01-25T13:22:57.419Z,8.76
2019-01-25T13:25:30.192Z,9.40
2019-01-25T13:28:02.982Z,9.14
2019-01-25T13:30:35.920Z,9.17
2019-01-25T13:33:08.824Z,9.24
2019-01-25T13:35:41.608Z,8.55
2019-01-25T13:38:17.923Z,8.08
2019-01-25T13:40:50.666Z,8.25
2019-01-25T13:43:23.684Z,8.16
2019-01-25T13:45:56.459Z,8.00
2019-01-25T13:48:29.046Z,7.28
2019-01-25T13:51:01.653Z,7.20
2019-01-25T13:53:34.286Z,6.11
2019-01-25T13:56:07.192Z,5.82
2019-01-25T13:58:39.872Z,5.10
2019-01-25T14:01:12.485Z,4.11
2019-01-25T14:03:45.072Z,3.58
2019-01-25T14:06:17.721Z,3.54
2019-01-25T14:08:50.386Z,3.58
2019-01-25T14:11:22.933Z,3.23
2019-01-25T14:13:55.472Z,2.96
2019-01-25T14:16:28.048Z,2.16
2019-01-25T14:19:00.670Z,1.17
2019-01-25T14:21:33.353Z,0.58
2019-01-25T14:24:06.296Z,0.39
2019-01-25T14:26:39.038Z,0.25
2019-01-25T14:29:11.611Z,0.45
2019-01-25T14:31:44.753Z,0.46
2019-01-25T14:34:18.019Z,0.48
2019-01-25T14:36:50.601Z,0.51
2019-01-25T14:39:23.157Z,0.40
2019-01-25T14:41:55.937Z,0.32
2019-01-25T14:44:28.987Z,0.21
2019-01-25T14:47:01.579Z,0.36
2019-01-25T14:49:34.211Z,0.47
2019-01-25T14:52:06.969Z,0.49
2019-01-25T14:54:39.587Z,0.40
2019-01-25T14:57:12.839Z,0.39
2019-01-25T14:59:45.682Z,0.30
2019-01-25T15:02:18.344Z,0.25
2019-01-25T15:04:51.039Z,0.25
2019-01-25T15:07:23.596Z,0.19
2019-01-25T15:09:56.246Z,0.19
2019-01-25T15:12:28.878Z,0.15
2019-01-25T15:15:01.482Z,0.18
2019-01-25T15:17:34.075Z,0.14
2019-01-25T15:20:11.346Z,0.07
2019-01-25T15:22:43.937Z,0.01
2019-01-25T15:25:17.255Z,-0.01
2019-01-25T15:27:49.920Z,-0.15
2019-01-25T15:30:30.022Z,-0.27
2019-01-25T15:33:02.693Z,-0.30
2019-01-25T15:35:38.402Z,-0.44
2019-01-25T15:38:11.113Z,-0.62
2019-01-25T15:40:43.891Z,-0.77
2019-01-25T15:43:16.533Z,-0.90
2019-01-25T15:45:49.129Z,-1.08
2019-01-25T15:48:21.717Z,-1.29
2019-01-25T15:50:54.346Z,-1.38
2019-01-25T15:53:26.958Z,-1.41
2019-01-25T15:55:59.624Z,-1.52
2019-01-25T15:58:32.388Z,-1.52
2019-01-25T16:01:04.996Z,-1.64
2019-01-25T16:03:37.747Z,-1.71
2019-01-25T16:06:10.597Z,-1.88
2019-01-25T16:08:43.359Z,-2.02
2019-01-25T16:11:16.084Z,-2.20
2019-01-25T16:13:49.839Z,-2.36
2019-01-25T16:16:22.911Z,-2.50
2019-01-25T16:18:55.482Z,-2.57
2019-01-25T16:21:28.162Z,-2.83
2019-01-25T16:24:00.946Z,-2.98
2019-01-25T16:26:33.587Z,-3.04
2019-01-25T16:29:06.247Z,-3.08
2019-01-25T16:31:38.882Z,-3.21
2019-01-25T16:34:11.680Z,-3.35
2019-01-25T16:36:47.431Z,-3.44
2019-01-25T16:39:20.057Z,-3.50
2019-01-25T16:41:52.869Z,-3.38
2019-01-25T16:44:25.960Z,-3.32
2019-01-25T16:46:58.863Z,-3.39
2019-01-25T16:49:31.535Z,-3.53
2019-01-25T16:52:04.297Z,-3.60
2019-01-25T16:54:36.959Z,-3.73
2019-01-25T16:57:09.605Z,-3.85
2019-01-25T16:59:42.273Z,-3.95
2019-01-25T17:02:15.026Z,-4.05
2019-01-25T17:04:47.891Z,-4.17
2019-01-25T17:07:20.609Z,-4.25
2019-01-25T17:09:53.350Z,-4.39
2019-01-25T17:12:26.061Z,-4.47
2019-01-25T17:14:58.720Z,-4.43
2019-01-25T17:17:31.459Z,-4.46
2019-01-25T17:20:05.406Z,-4.44
2019-01-25T17:22:38.119Z,-4.39
2019-01-25T17:25:11.729Z,-4.31
2019-01-25T17:27:44.842Z,-4.25
2019-01-25T17:30:24.043Z,-4.18
2019-01-25T17:32:58.394Z,-4.14
2019-01-25T17:35:32.071Z,-4.08
2019-01-25T17:38:06.487Z,-4.01
2019-01-25T17:40:48.667Z,-4.01
2019-01-25T17:43:21.360Z,-3.95
2019-01-25T17:45:54.007Z,-3.82
2019-01-25T17:48:26.729Z,-3.81
2019-01-25T17:50:59.407Z,-3.84
2019-01-25T17:53:32.044Z,-3.87
2019-01-25T17:56:04.926Z,-3.98
2019-01-25T17:58:37.675Z,-4.15
2019-01-25T18:01:10.328Z,-4.23
2019-01-25T18:03:43.142Z,-4.30
2019-01-25T18:06:15.958Z,-4.37
2019-01-25T18:08:48.767Z,-4.44
2019-01-25T18:11:21.443Z,-4.50
2019-01-25T18:13:54.495Z,-4.58
2019-01-25T18:16:27.872Z,-4.62
2019-01-25T18:19:03.647Z,-4.62
2019-01-25T18:21:36.827Z,-4.54
2019-01-25T18:24:09.789Z,-4.53
2019-01-25T18:26:42.644Z,-4.49
2019-01-25T18:29:33.908Z,-4.46
2019-01-25T18:32:07.309Z,-4.40
2019-01-25T18:34:39.965Z,-4.52
2019-01-25T18:37:12.701Z,-4.60
2019-01-25T18:39:45.469Z,-4.53
2019-01-25T18:42:18.365Z,-4.43
2019-01-25T18:44:56.688Z,-4.25
2019-01-25T18:47:25.569Z,-4.10
2019-01-25T18:49:58.290Z,-3.96
2019-01-25T18:52:31.135Z,-3.85
2019-01-25T18:55:05.379Z,-3.85
2019-01-25T18:57:37.376Z,-3.79
2019-01-25T19:00:15.194Z,-3.71
2019-01-25T19:02:47.955Z,-3.64
2019-01-25T19:05:20.667Z,-3.60
2019-01-25T19:07:53.489Z,-3.54
2019-01-25T19:10:27.253Z,-3.43
2019-01-25T19:12:59.932Z,-3.41
2019-01-25T19:15:32.922Z,-3.28
2019-01-25T19:18:05.651Z,-3.24
2019-01-25T19:20:38.261Z,-3.22
2019-01-25T19:23:11.097Z,-3.18
2019-01-25T19:25:43.794Z,-3.14
2019-01-25T19:28:16.460Z,-3.14
2019-01-25T19:30:50.080Z,-3.10
2019-01-25T19:33:22.852Z,-3.06
2019-01-25T19:35:58.884Z,-2.99
2019-01-25T19:38:31.843Z,-2.86
2019-01-25T19:41:04.570Z,-2.73
2019-01-25T19:43:37.315Z,-2.82
2019-01-25T19:46:10.150Z,-2.83
2019-01-25T19:48:42.891Z,-2.80
2019-01-25T19:51:15.655Z,-2.78
2019-01-25T19:53:48.375Z,-2.72
2019-01-25T19:56:21.099Z,-2.70
2019-01-25T19:58:53.948Z,-2.70
2019-01-25T20:01:26.663Z,-2.69
2019-01-25T20:03:59.566Z,-2.69
2019-01-25T20:06:32.362Z,-2.63
2019-01-25T20:09:08.749Z,-2.57
2019-01-25T20:11:41.547Z,-2.61
2019-01-25T20:14:14.423Z,-2.62
2019-01-25T20:16:47.539Z,-2.64
2019-01-25T20:19:20.293Z,-2.70
2019-01-25T20:21:53.013Z,-2.71
2019-01-25T20:24:25.662Z,-2.66
2019-01-25T20:26:58.413Z,-2.68
2019-01-25T20:29:31.054Z,-2.65
2019-01-25T20:32:03.996Z,-2.56
2019-01-25T20:34:36.880Z,-2.51
2019-01-25T20:37:09.599Z,-2.54
2019-01-25T20:39:42.387Z,-2.52
2019-01-25T20:42:15.274Z,-2.50
2019-01-25T20:44:48.022Z,-2.55
2019-01-25T20:47:20.642Z,-2.47
2019-01-25T20:49:53.350Z,-2.44
2019-01-25T20:52:26.084Z,-2.49
2019-01-25T20:55:01.394Z,-2.54
2019-01-25T20:57:34.196Z,-2.54
2019-01-25T21:00:13.058Z,-2.52
2019-01-25T21:02:45.811Z,-2.44
2019-01-25T21:05:18.610Z,-2.41
2019-01-25T21:07:51.343Z,-2.37
2019-01-25T21:10:24.705Z,-2.34
2019-01-25T21:12:57.338Z,-2.26
2019-01-25T21:15:35.068Z,-2.20
2019-01-25T21:18:05.407Z,-2.11
2019-01-25T21:20:42.125Z,-2.03
2019-01-25T21:23:14.795Z,-1.99
2019-01-25T21:25:47.372Z,-2.01
2019-01-25T21:28:20.038Z,-2.01
2019-01-25T21:30:52.671Z,-2.04
2019-01-25T21:33:26.701Z,-1.96
2019-01-25T21:35:59.613Z,-2.04
2019-01-25T21:38:32.296Z,-2.09
2019-01-25T21:41:04.947Z,-2.11
2019-01-25T21:43:37.768Z,-2.10
2019-01-25T21:46:10.580Z,-2.07
2019-01-25T21:48:43.196Z,-1.98
2019-01-25T21:51:15.900Z,-1.94
2019-01-25T21:53:48.530Z,-1.98
2019-01-25T21:56:22.162Z,-1.96
2019-01-25T21:58:54.919Z,-1.94
2019-01-25T22:01:27.637Z,-1.90
2019-01-25T22:04:00.313Z,-1.88
2019-01-25T22:06:33.157Z,-1.80
2019-01-25T22:09:09.131Z,-1.81
2019-01-25T22:11:41.839Z,-1.75
2019-01-25T22:14:14.546Z,-1.70
2019-01-25T22:16:47.227Z,-1.79
2019-01-25T22:19:19.964Z,-1.76
2019-01-25T22:21:52.679Z,-1.68
2019-01-25T22:24:25.357Z,-1.61
2019-01-25T22:26:57.997Z,-1.64
2019-01-25T22:29:30.667Z,-1.80
2019-01-25T22:32:03.373Z,-1.78
2019-01-25T22:34:35.943Z,-1.71
2019-01-25T22:37:08.670Z,-1.65
2019-01-25T22:39:41.358Z,-1.73
2019-01-25T22:42:14.087Z,-1.72
2019-01-25T22:44:46.792Z,-1.79
2019-01-25T22:47:20.385Z,-1.79
2019-01-25T22:49:53.265Z,-1.68
2019-01-25T22:52:25.863Z,-1.63
2019-01-25T22:54:58.439Z,-1.60
2019-01-25T22:57:31.092Z,-1.64
2019-01-25T23:00:05.056Z,-1.73
2019-01-25T23:02:38.165Z,-1.77
2019-01-25T23:05:45.247Z,-1.78
2019-01-25T23:08:17.912Z,-1.78
2019-01-25T23:10:50.490Z,-1.74
2019-01-25T23:13:24.334Z,-1.72
2019-01-25T23:15:57.020Z,-1.70
2019-01-25T23:18:29.657Z,-1.65
2019-01-25T23:21:01.831Z,-1.71
2019-01-25T23:23:34.491Z,-1.70
2019-01-25T23:26:07.171Z,-1.68
2019-01-25T23:28:39.800Z,-1.52
2019-01-25T23:31:12.433Z,-1.49
2019-01-25T23:33:45.036Z,-1.46
2019-01-25T23:36:17.843Z,-1.48
2019-01-25T23:38:50.421Z,-1.49
2019-01-25T23:41:23.220Z,-1.58
2019-01-25T23:43:55.890Z,-1.64
2019-01-25T23:46:28.535Z,-1.65
2019-01-25T23:49:01.206Z,-1.70
2019-01-25T23:51:33.846Z,-1.70
2019-01-25T23:54:07.414Z,-1.65
2019-01-25T23:56:40.210Z,-1.54
2019-01-25T23:59:12.804Z,-1.52
